Time;durP1;ratioP1;P1;durP2;ratioP2;P2;SDS_P1;SDS_P2;PMS_P1;PMS_P2;Temp;Humidity;BMP_temperature;BMP_pressure;BME280_temperature;BME280_humidity;BME280_pressure;Samples;Min_cycle;Max_cycle;Signal;HPM_P1;HPM_P2
2022/06/10 00:00:20;;;;;;;1.00;1.00;;;;;;;12.02;76.01;101987.41;6218095;23;20008;-82
2022/06/10 00:02:46;;;;;;;1.20;1.20;;;;;;;12.00;76.07;101988.28;6218249;23;20005;-82
2022/06/10 00:05:13;;;;;;;1.80;1.10;;;;;;;11.98;77.38;101997.84;6217330;23;20480;-81
2022/06/10 00:07:39;;;;;;;1.42;1.08;;;;;;;11.96;76.45;101994.34;6217198;23;20255;-81
2022/06/10 00:10:06;;;;;;;1.40;1.20;;;;;;;11.94;76.98;101985.66;6218651;23;20005;-81
2022/06/10 00:12:32;;;;;;;1.55;1.30;;;;;;;11.94;77.31;101989.16;6217729;23;20056;-81
2022/06/10 00:14:57;;;;;;;1.10;1.10;;;;;;;11.92;76.54;101992.63;6218312;23;20008;-81
2022/06/10 00:17:23;;;;;;;1.30;1.20;;;;;;;11.88;76.49;101989.16;6218895;23;20008;-83
2022/06/10 00:19:48;;;;;;;1.43;1.10;;;;;;;11.86;77.63;101988.31;6217367;23;20005;-82
2022/06/10 00:22:14;;;;;;;3.23;1.20;;;;;;;11.83;77.59;101989.16;6218133;23;20020;-81
2022/06/10 00:24:39;;;;;;;2.73;1.40;;;;;;;11.80;77.35;101991.78;6218233;23;20016;-81
2022/06/10 00:27:05;;;;;;;1.33;1.30;;;;;;;11.76;76.88;101989.19;6217851;23;20032;-81
2022/06/10 00:29:31;;;;;;;1.50;1.40;;;;;;;11.73;76.71;101990.94;6218389;23;20011;-81
2022/06/10 00:31:57;;;;;;;1.40;1.30;;;;;;;11.72;76.75;101993.50;6218246;23;20296;-82
2022/06/10 00:34:22;;;;;;;1.40;1.30;;;;;;;11.71;77.32;101991.78;6217502;23;20290;-81
2022/06/10 00:36:48;;;;;;;1.40;1.30;;;;;;;11.67;77.04;101985.72;6218299;23;20050;-82
2022/06/10 00:39:13;;;;;;;1.43;1.33;;;;;;;11.70;77.13;101988.31;6218557;23;20001;-82
2022/06/10 00:41:44;;;;;;;1.63;1.40;;;;;;;11.68;77.58;101984.84;6217299;23;20004;-82
2022/06/10 00:44:32;;;;;;;1.10;1.10;;;;;;;11.68;78.05;101984.84;6218506;23;20016;-81
2022/06/10 00:46:58;;;;;;;1.30;1.20;;;;;;;11.67;77.43;101987.47;6217259;23;20009;-81
2022/06/10 00:49:24;;;;;;;1.53;1.43;;;;;;;11.67;78.55;101977.06;6217574;23;20437;-81
2022/06/10 00:51:52;;;;;;;1.87;1.17;;;;;;;11.67;77.96;101982.28;6218156;23;20084;-81
2022/06/10 00:54:37;;;;;;;1.70;1.45;;;;;;;11.66;79.02;101983.97;6217790;23;20019;-82
2022/06/10 00:57:04;;;;;;;1.50;1.40;;;;;;;11.68;79.05;101982.25;6217761;23;20381;-82
2022/06/10 00:59:32;;;;;;;;;;;;;;;11.70;80.58;101977.94;6218340;23;20000;-81
2022/06/10 01:02:01;;;;;;;1.70;1.60;;;;;;;11.70;80.41;101974.47;6216351;23;19911;-82
2022/06/10 01:04:27;;;;;;;1.60;1.50;;;;;;;11.72;79.50;101972.72;6216407;23;20011;-81
2022/06/10 01:06:53;;;;;;;1.48;1.38;;;;;;;11.74;79.04;101973.56;6215978;23;20012;-81
2022/06/10 01:09:19;;;;;;;1.50;1.27;;;;;;;11.78;79.58;101974.44;6216000;23;20004;-82
2022/06/10 01:12:04;;;;;;;0.93;0.93;;;;;;;11.81;79.50;101977.91;6216092;23;20013;-81
2022/06/10 01:14:41;;;;;;;1.00;1.00;;;;;;;11.84;78.66;101983.09;6215965;23;20028;-81
2022/06/10 01:17:18;;;;;;;1.17;1.10;;;;;;;11.89;78.81;101976.16;6216631;23;20009;-81
2022/06/10 01:20:02;;;;;;;0.77;0.77;;;;;;;11.95;79.13;101979.59;6215308;23;20007;-81
2022/06/10 01:22:36;;;;;;;0.85;0.85;;;;;;;11.99;79.02;101978.75;6215222;23;20087;-81
2022/06/10 01:25:40;;;;;;;0.80;0.80;;;;;;;12.03;80.41;101977.88;6216721;23;20062;-81
2022/06/10 01:28:12;;;;;;;2.15;0.88;;;;;;;12.05;79.29;101979.59;6215587;23;20083;-82
2022/06/10 01:31:13;;;;;;;1.27;1.02;;;;;;;12.10;78.92;101981.34;6214687;23;20417;-81
2022/06/10 01:33:57;;;;;;;1.25;1.13;;;;;;;12.12;80.02;101983.06;6216332;23;20007;-82
2022/06/10 01:36:31;;;;;;;1.23;0.95;;;;;;;12.14;80.37;101983.91;6215636;23;20017;-82
2022/06/10 01:39:01;;;;;;;1.20;1.00;;;;;;;12.18;79.74;101989.97;6216060;23;20353;-81
2022/06/10 01:42:11;;;;;;;1.10;1.10;;;;;;;12.21;79.80;101982.16;6216435;23;20107;-82
2022/06/10 01:45:01;;;;;;;1.45;0.90;;;;;;;12.26;79.21;101987.34;6093897;23;20085;-82
2022/06/10 01:47:41;;;;;;;3.20;1.50;;;;;;;12.29;81.43;101987.31;6216078;23;20009;-82
2022/06/10 01:50:14;;;;;;;2.08;1.23;;;;;;;12.33;79.40;101986.44;6210546;23;20070;-81
2022/06/10 01:52:56;;;;;;;1.45;1.35;;;;;;;12.35;79.53;101985.56;6215861;23;20036;-81
2022/06/10 01:55:45;;;;;;;1.40;1.30;;;;;;;12.38;79.74;101986.41;6216285;23;20008;-82
2022/06/10 01:58:18;;;;;;;1.50;1.20;;;;;;;12.40;79.72;101987.28;6215056;23;20076;-81
2022/06/10 02:00:48;;;;;;;1.10;1.10;;;;;;;12.42;79.41;101980.34;6215475;23;20005;-81
2022/06/10 02:03:27;;;;;;;1.55;1.15;;;;;;;12.43;79.72;101985.53;6216405;23;20039;-82
2022/06/10 02:06:12;;;;;;;1.20;1.10;;;;;;;12.47;79.27;101989.84;6215169;23;20441;-81
2022/06/10 02:08:48;;;;;;;1.20;1.10;;;;;;;12.49;80.31;101995.03;6215829;23;20008;-82
2022/06/10 02:11:16;;;;;;;2.33;1.30;;;;;;;12.52;80.35;101988.06;6215559;23;20008;-82
2022/06/10 02:13:55;;;;;;;0.95;0.95;;;;;;;12.56;80.40;101982.88;6215574;23;20013;-82
2022/06/10 02:16:26;;;;;;;1.30;1.20;;;;;;;12.58;79.96;101981.13;6215304;23;20043;-82
2022/06/10 02:18:55;;;;;;;1.33;1.23;;;;;;;12.60;79.71;101981.97;6214434;23;20004;-82
2022/06/10 02:21:26;;;;;;;1.27;1.10;;;;;;;12.62;80.66;101978.50;6216050;23;20004;-82
2022/06/10 02:23:58;;;;;;;1.48;1.38;;;;;;;12.64;80.13;101979.34;6214881;23;20044;-82
2022/06/10 02:26:27;;;;;;;1.98;1.40;;;;;;;12.67;79.63;101986.28;6215261;23;20012;-82
2022/06/10 02:28:55;;;;;;;3.03;1.35;;;;;;;12.69;81.57;101987.13;6215544;23;20028;-82
2022/06/10 02:31:41;;;;;;;5.15;1.98;;;;;;;12.69;81.45;101987.13;6216083;23;20066;-82
2022/06/10 02:34:07;;;;;;;;;;;;;;;12.70;80.38;101996.69;6215323;23;20012;-82
2022/06/10 02:36:54;;;;;;;3.08;1.90;;;;;;;12.74;80.44;101997.53;6215436;23;19908;-82
2022/06/10 02:39:25;;;;;;;1.65;1.40;;;;;;;12.77;79.81;101998.38;6215128;23;20009;-82
2022/06/10 02:42:18;;;;;;;1.88;1.50;;;;;;;12.78;80.49;102001.81;6215578;23;20009;-82
2022/06/10 02:45:02;;;;;;;2.15;1.60;;;;;;;12.81;79.83;101997.47;6215010;23;20059;-82
2022/06/10 02:47:44;;;;;;;4.93;1.77;;;;;;;12.84;80.22;102004.41;6214020;23;20012;-82
2022/06/10 02:50:11;;;;;;;1.70;1.60;;;;;;;12.85;80.20;101997.44;6215448;23;20005;-82
2022/06/10 02:52:37;;;;;;;1.98;1.40;;;;;;;12.88;80.06;102000.03;6214740;23;20004;-82
2022/06/10 02:55:06;;;;;;;1.40;1.30;;;;;;;12.89;79.63;102006.97;6215018;23;20326;-82
2022/06/10 03:03:21;;;;;;;1.40;1.30;;;;;;;12.97;80.29;101989.53;6215200;23;20465;-82
2022/06/10 03:06:00;;;;;;;1.27;1.17;;;;;;;13.00;80.13;101993.91;6215153;23;20004;-82
2022/06/10 03:08:37;;;;;;;1.55;1.30;;;;;;;13.02;79.71;101998.22;6214066;23;20331;-82
2022/06/10 03:11:09;;;;;;;1.30;1.20;;;;;;;13.04;80.26;102011.22;6215492;23;20092;-82
2022/06/10 03:13:51;;;;;;;0.98;0.98;;;;;;;13.05;79.16;102002.53;6215465;23;20087;-82
2022/06/10 03:16:35;;;;;;;0.90;0.90;;;;;;;13.07;79.35;102009.44;6214742;23;20004;-82
2022/06/10 03:19:37;;;;;;;1.45;0.70;;;;;;;13.11;79.18;102018.13;6214612;23;20448;-82
2022/06/10 03:22:08;;;;;;;1.17;0.82;;;;;;;13.12;80.21;102012.91;6214651;23;20008;-82
2022/06/10 03:24:57;;;;;;;1.17;1.17;;;;;;;13.15;80.42;102018.97;6215186;23;20000;-82
2022/06/10 03:27:38;;;;;;;1.35;1.20;;;;;;;13.16;79.50;102018.09;6215602;23;20004;-82
2022/06/10 03:30:10;;;;;;;0.90;0.90;;;;;;;13.17;79.70;102018.09;6214379;23;20040;-82
2022/06/10 03:32:42;;;;;;;1.13;1.02;;;;;;;13.19;80.45;102025.88;6215583;23;20005;-83
2022/06/10 03:35:18;;;;;;;0.80;0.80;;;;;;;13.20;79.46;102022.41;6215243;23;20007;-82
2022/06/10 03:37:44;;;;;;;1.10;1.00;;;;;;;13.20;79.38;102022.41;6214161;23;20035;-82
2022/06/10 03:40:19;;;;;;;0.80;0.80;;;;;;;13.23;80.21;102031.06;6214808;23;20008;-82
2022/06/10 03:42:48;;;;;;;1.25;0.70;;;;;;;13.24;79.19;102024.13;6214230;23;20120;-83
2022/06/10 03:45:17;;;;;;;0.70;0.70;;;;;;;13.25;79.84;102021.50;6215545;23;20011;-82
2022/06/10 03:47:43;;;;;;;0.80;0.77;;;;;;;13.26;80.14;102012.78;6214772;23;20043;-82
2022/06/10 03:50:12;;;;;;;0.70;0.70;;;;;;;13.26;80.42;102009.34;6213930;23;20000;-82
2022/06/10 03:52:41;;;;;;;2.58;1.20;;;;;;;13.26;80.14;102011.94;6215026;23;20000;-81
2022/06/10 03:55:17;;;;;;;2.60;1.48;;;;;;;13.28;80.48;102011.03;6215365;23;20047;-82
2022/06/10 03:57:43;;;;;;;2.58;1.65;;;;;;;13.28;79.95;102015.41;6213801;23;20303;-82
2022/06/10 04:00:14;;;;;;;3.13;1.60;;;;;;;13.28;80.90;102023.22;6214289;23;20304;-82
2022/06/10 04:02:39;;;;;;;2.22;1.40;;;;;;;13.31;80.20;102030.16;6214604;23;20084;-82
2022/06/10 04:05:05;;;;;;;3.57;1.80;;;;;;;13.30;80.50;102029.28;6214097;23;20084;-82
2022/06/10 04:07:31;;;;;;;2.85;1.50;;;;;;;13.31;80.67;102036.22;6214306;23;20012;-83
2022/06/10 04:09:56;;;;;;;2.40;1.47;;;;;;;13.31;80.44;102033.63;6214139;23;20013;-83
2022/06/10 04:12:22;;;;;;;1.20;1.10;;;;;;;13.32;81.14;102035.34;6214697;23;20012;-82
2022/06/10 04:14:47;;;;;;;1.43;1.20;;;;;;;13.34;80.53;102035.34;6215300;23;20008;-82
2022/06/10 04:17:13;;;;;;;1.53;1.10;;;;;;;13.35;80.57;102042.28;6214295;23;20005;-82
2022/06/10 04:19:38;;;;;;;2.00;1.10;;;;;;;13.37;80.92;102040.53;6213787;23;20011;-82
2022/06/10 04:22:04;;;;;;;1.63;1.07;;;;;;;13.39;81.09;102034.47;6214846;23;20087;-82
2022/06/10 04:24:32;;;;;;;1.30;1.30;;;;;;;13.41;81.17;102043.13;6215284;23;20314;-82
2022/06/10 04:26:57;;;;;;;1.48;1.38;;;;;;;13.44;81.07;102052.69;6213636;23;20008;-82
2022/06/10 04:29:23;;;;;;;0.90;0.90;;;;;;;13.47;80.85;102044.81;6215087;23;20063;-82
2022/06/10 04:31:48;;;;;;;1.47;1.20;;;;;;;13.51;81.75;102043.06;6213436;23;20013;-82
2022/06/10 04:34:17;;;;;;;1.20;1.10;;;;;;;13.52;80.71;102042.16;6215357;23;20024;-82
2022/06/10 04:36:43;;;;;;;0.77;0.77;;;;;;;13.57;80.57;102043.00;6216106;23;20004;-84
2022/06/10 04:39:08;;;;;;;0.60;0.60;;;;;;;13.60;80.47;102043.00;6216341;23;20023;-84
2022/06/10 04:41:34;;;;;;;1.13;0.83;;;;;;;13.63;80.93;102045.53;6216531;23;20011;-83
2022/06/10 04:44:00;;;;;;;2.17;0.90;;;;;;;13.64;81.29;102043.81;6215970;23;20039;-82
2022/06/10 04:46:29;;;;;;;1.07;0.93;;;;;;;13.65;81.88;102037.72;6216269;23;20001;-82
2022/06/10 04:48:55;;;;;;;0.88;0.77;;;;;;;13.68;81.16;102048.16;6216406;23;20001;-82
2022/06/10 04:51:21;;;;;;;1.73;0.80;;;;;;;13.70;82.60;102047.25;6216711;23;20059;-82
2022/06/10 04:53:46;;;;;;;1.20;1.03;;;;;;;13.73;82.15;102043.72;6215654;23;20004;-83
2022/06/10 04:56:12;;;;;;;1.00;1.00;;;;;;;13.73;82.75;102044.63;6216630;23;20004;-83
2022/06/10 04:58:37;;;;;;;1.87;1.17;;;;;;;13.75;83.08;102042.84;6216772;23;20009;-83
2022/06/10 05:01:03;;;;;;;2.90;1.40;;;;;;;13.75;82.84;102045.44;6216165;23;20012;-83
2022/06/10 05:03:28;;;;;;;1.40;1.23;;;;;;;13.79;82.65;102050.63;6216499;23;20088;-83
2022/06/10 05:05:53;;;;;;;1.50;1.40;;;;;;;13.78;82.52;102038.47;6215854;23;20000;-83
2022/06/10 05:08:18;;;;;;;1.60;1.50;;;;;;;13.82;82.62;102045.41;6215688;23;20356;-84
2022/06/10 05:10:46;;;;;;;3.27;1.50;;;;;;;13.82;83.01;102046.25;6216567;23;20012;-83
2022/06/10 05:13:11;;;;;;;3.45;1.98;;;;;;;13.84;82.90;102041.88;6215647;23;20446;-84
2022/06/10 05:15:37;;;;;;;4.33;1.90;;;;;;;13.85;82.64;102042.75;6214498;23;20003;-83
2022/06/10 05:18:03;;;;;;;3.43;1.60;;;;;;;13.88;82.26;102047.94;6216400;23;20004;-83
2022/06/10 05:20:37;;;;;;;3.57;1.90;;;;;;;13.90;81.75;102046.19;6216264;23;20410;-83
2022/06/10 05:23:03;;;;;;;4.72;2.00;;;;;;;13.94;82.13;102044.41;6215350;23;20146;-84
2022/06/10 05:25:32;;;;;;;5.63;2.10;;;;;;;13.99;82.59;102035.66;6216032;23;20005;-84
2022/06/10 05:27:58;;;;;;;5.13;2.28;;;;;;;14.03;82.33;102031.25;6215011;23;20004;-84
2022/06/10 05:30:26;;;;;;;3.65;2.10;;;;;;;14.07;82.14;102032.09;6216550;23;20080;-83
2022/06/10 05:32:52;;;;;;;3.08;1.92;;;;;;;14.11;81.18;102028.56;6215964;23;20008;-83
2022/06/10 05:35:18;;;;;;;2.57;1.90;;;;;;;14.15;81.63;102030.25;6214929;23;20001;-84
2022/06/10 05:37:44;;;;;;;3.58;1.80;;;;;;;14.19;82.30;102031.94;6215580;23;20004;-83
2022/06/10 05:40:13;;;;;;;4.80;2.10;;;;;;;14.21;81.34;102036.28;6216478;23;20318;-84
2022/06/10 05:42:39;;;;;;;5.20;2.35;;;;;;;14.24;81.44;102029.31;6214549;23;20248;-83
2022/06/10 05:45:05;;;;;;;3.93;1.97;;;;;;;14.28;81.86;102034.47;6216539;23;19996;-84
2022/06/10 05:47:33;;;;;;;4.07;2.03;;;;;;;14.31;82.14;102029.19;6215556;23;20095;-84
2022/06/10 05:50:06;;;;;;;4.40;2.15;;;;;;;14.37;82.14;102030.88;6214548;23;20079;-84
2022/06/10 05:52:32;;;;;;;4.20;2.10;;;;;;;14.44;81.14;102035.16;6216177;23;20016;-84
2022/06/10 05:55:00;;;;;;;2.93;1.83;;;;;;;14.48;81.22;102044.66;6216139;23;20009;-84
2022/06/10 05:57:27;;;;;;;2.45;1.67;;;;;;;14.52;81.51;102033.28;6215551;23;20058;-84
2022/06/10 05:59:52;;;;;;;;;;;;;;;14.61;81.70;102036.66;6216028;23;20000;-84
2022/06/10 06:02:19;;;;;;;3.07;1.67;;;;;;;14.67;81.52;102039.25;6216028;23;19915;-85
2022/06/10 06:04:45;;;;;;;3.28;1.70;;;;;;;14.75;81.02;102039.16;6215020;23;20001;-84
2022/06/10 06:07:18;;;;;;;3.83;1.97;;;;;;;14.85;81.73;102032.91;6215823;23;20011;-83
2022/06/10 06:09:44;;;;;;;3.42;2.00;;;;;;;14.96;81.36;102035.34;6214694;23;20084;-84
2022/06/10 06:12:09;;;;;;;5.87;2.10;;;;;;;15.07;81.44;102043.03;6213404;23;20429;-84
2022/06/10 06:14:34;;;;;;;2.60;1.70;;;;;;;15.16;81.12;102040.28;6215878;23;20080;-84
2022/06/10 06:17:02;;;;;;;4.87;1.93;;;;;;;15.22;80.90;102042.78;6215475;23;20022;-85
2022/06/10 06:19:30;;;;;;;2.88;1.70;;;;;;;15.27;80.52;102050.56;6215153;23;20325;-86
2022/06/10 06:21:56;;;;;;;4.32;1.90;;;;;;;15.27;80.91;102047.94;6215778;23;20008;-83
2022/06/10 06:24:21;;;;;;;3.72;1.88;;;;;;;15.28;80.52;102052.28;6215157;23;20009;-84
2022/06/10 06:26:47;;;;;;;3.83;1.97;;;;;;;15.31;79.51;102051.41;6215675;23;20075;-84
2022/06/10 06:29:13;;;;;;;3.20;2.13;;;;;;;15.33;79.65;102053.09;6215975;23;20075;-83
2022/06/10 06:31:39;;;;;;;4.10;1.60;;;;;;;15.40;79.94;102059.94;6213932;23;20000;-83
2022/06/10 06:34:05;;;;;;;3.20;1.63;;;;;;;15.45;79.25;102057.25;6215629;23;20001;-84
2022/06/10 06:36:38;;;;;;;3.13;1.60;;;;;;;15.50;79.41;102052.81;6214660;23;20016;-84
2022/06/10 06:39:05;;;;;;;2.92;1.50;;;;;;;15.56;80.11;102052.72;6214789;23;20004;-84
2022/06/10 06:41:30;;;;;;;5.00;2.15;;;;;;;15.59;78.47;102057.06;6216070;23;20012;-84
2022/06/10 06:43:56;;;;;;;6.17;2.00;;;;;;;15.62;78.48;102051.75;6215927;23;20036;-84
2022/06/10 06:46:21;;;;;;;2.57;1.37;;;;;;;15.66;78.56;102063.00;6214731;23;20004;-86
2022/06/10 06:48:47;;;;;;;4.50;1.50;;;;;;;15.68;79.28;102063.84;6215606;23;20240;-86
2022/06/10 06:51:13;;;;;;;3.50;1.70;;;;;;;15.72;79.11;102062.94;6215884;23;20056;-84
2022/06/10 06:53:38;;;;;;;2.05;1.42;;;;;;;15.75;78.86;102071.56;6214644;23;19993;-88
2022/06/10 06:56:05;;;;;;;2.77;1.40;;;;;;;15.78;78.35;102072.41;6214943;23;20008;-87
2022/06/10 06:58:31;;;;;;;4.25;1.42;;;;;;;15.81;77.94;102072.38;6215205;23;20004;-87
2022/06/10 07:00:58;;;;;;;3.03;1.58;;;;;;;15.83;78.02;102076.69;6214238;23;20493;-87
2022/06/10 07:03:24;;;;;;;3.90;1.85;;;;;;;15.86;77.77;102065.31;6215037;23;20001;-86
2022/06/10 07:05:49;;;;;;;3.42;1.77;;;;;;;15.90;77.78;102067.84;6214937;23;20007;-87
2022/06/10 07:08:17;;;;;;;3.13;1.40;;;;;;;16.00;77.53;102072.91;6214491;23;20012;-87
2022/06/10 07:10:42;;;;;;;2.75;1.60;;;;;;;16.04;78.07;102069.38;6215098;23;20076;-85
2022/06/10 07:13:08;;;;;;;3.03;1.60;;;;;;;16.07;77.45;102071.94;6215670;23;20084;-86
2022/06/10 07:15:34;;;;;;;1.30;1.13;;;;;;;16.16;77.60;102071.75;6214781;23;20005;-86
2022/06/10 07:18:00;;;;;;;3.67;1.50;;;;;;;16.23;77.96;102071.63;6215462;23;20005;-86
2022/06/10 07:20:29;;;;;;;4.22;1.80;;;;;;;16.26;76.65;102061.09;6214601;23;20094;-86
2022/06/10 07:22:54;;;;;;;3.85;1.90;;;;;;;16.31;76.50;102070.59;6214760;23;20012;-87
2022/06/10 07:25:21;;;;;;;2.33;1.60;;;;;;;16.38;76.65;102070.47;6215436;23;20000;-87
2022/06/10 07:27:47;;;;;;;4.47;2.00;;;;;;;16.43;75.59;102071.22;6213958;23;20011;-82
2022/06/10 07:30:18;;;;;;;4.15;1.60;;;;;;;16.52;75.68;102073.66;6215315;23;20005;-81
2022/06/10 07:32:44;;;;;;;5.22;2.00;;;;;;;16.64;75.94;102085.66;6214860;23;20032;-81
2022/06/10 07:35:10;;;;;;;3.27;1.50;;;;;;;16.73;75.99;102077.59;6213912;23;20008;-81
2022/06/10 07:37:35;;;;;;;4.60;1.80;;;;;;;16.88;75.89;102079.03;6215164;23;20000;-83
2022/06/10 07:40:02;;;;;;;2.80;1.60;;;;;;;17.02;76.01;102080.50;6214591;23;20031;-84
2022/06/10 07:42:27;;;;;;;1.90;1.60;;;;;;;17.08;74.94;102082.97;6212324;23;20008;-83
2022/06/10 07:44:57;;;;;;;2.87;1.63;;;;;;;17.07;74.79;102078.63;6214049;23;20522;-80
2022/06/10 07:47:23;;;;;;;3.72;1.50;;;;;;;17.07;74.87;102079.50;6214783;23;20004;-80
2022/06/10 07:49:51;;;;;;;3.60;1.73;;;;;;;17.05;74.48;102083.06;6212240;23;20068;-84
2022/06/10 07:52:16;;;;;;;3.20;1.60;;;;;;;17.05;74.93;102080.44;6212031;23;20031;-86
2022/06/10 07:54:44;;;;;;;3.10;1.40;;;;;;;17.02;74.25;102073.50;6213817;23;20043;-85
2022/06/10 07:57:11;;;;;;;5.10;1.65;;;;;;;17.02;74.80;102072.63;6212387;23;20005;-85
2022/06/10 07:59:36;;;;;;;3.40;1.63;;;;;;;17.01;74.50;102071.75;6214542;23;20027;-85
2022/06/10 08:02:02;;;;;;;3.33;1.60;;;;;;;17.05;74.88;102068.19;6212519;23;20333;-85
2022/06/10 08:04:27;;;;;;;3.03;1.70;;;;;;;17.09;74.36;102058.47;6213651;23;20433;-87
2022/06/10 08:06:53;;;;;;;2.07;1.10;;;;;;;17.19;73.66;102070.47;6214718;23;20314;-86
2022/06/10 08:09:33;;;;;;;3.97;1.43;;;;;;;17.25;73.73;102069.47;6214394;23;20001;-88
2022/06/10 08:11:58;;;;;;;1.80;1.30;;;;;;;17.38;73.92;102086.66;6216080;23;20023;-89
2022/06/10 08:14:25;;;;;;;3.87;1.60;;;;;;;17.44;73.71;102068.16;6216580;23;20028;-86
2022/06/10 08:17:08;;;;;;;2.28;1.40;;;;;;;17.56;73.93;102079.25;6213548;23;20425;-83
2022/06/10 08:19:33;;;;;;;3.63;1.63;;;;;;;17.64;72.99;102072.03;6189213;23;20008;-84
2022/06/10 08:24:42;;;;;;;1.35;1.10;;;;;;;17.88;72.01;102077.53;6215058;23;20059;-84
2022/06/10 08:27:08;;;;;;;1.63;1.07;;;;;;;17.99;72.64;102082.53;6216882;23;20004;-88
2022/06/10 08:29:36;;;;;;;2.63;1.50;;;;;;;18.06;70.65;102074.44;6215157;23;20032;-87
2022/06/10 08:32:04;;;;;;;3.88;1.48;;;;;;;18.11;70.54;102074.31;6213353;23;20015;-87
2022/06/10 08:34:29;;;;;;;5.22;1.52;;;;;;;18.13;70.16;102082.16;6216281;23;20028;-89
2022/06/10 08:36:55;;;;;;;3.47;1.57;;;;;;;18.19;70.74;102082.00;6216590;23;20414;-86
2022/06/10 08:39:20;;;;;;;3.67;1.40;;;;;;;18.24;69.41;102081.88;6215431;23;20032;-85
2022/06/10 08:42:10;;;;;;;3.30;1.77;;;;;;;18.26;69.20;102078.28;6215741;23;20001;-86
2022/06/10 08:44:52;;;;;;;4.28;1.70;;;;;;;18.30;68.92;102084.31;6216089;23;20000;-86
2022/06/10 08:47:17;;;;;;;5.28;2.03;;;;;;;18.31;68.13;102075.53;6216964;23;20000;-86
2022/06/10 08:50:13;;;;;;;5.73;2.10;;;;;;;18.28;67.91;102073.84;6216804;23;20063;-87
2022/06/10 08:53:00;;;;;;;6.05;2.00;;;;;;;18.28;68.53;102068.59;6215543;23;20028;-85
2022/06/10 08:56:03;;;;;;;5.35;2.03;;;;;;;18.32;68.98;102069.38;6216747;23;20009;-87
2022/06/10 08:58:39;;;;;;;4.43;2.03;;;;;;;18.39;67.67;102060.41;6216386;23;20012;-87
2022/06/10 09:01:16;;;;;;;6.00;2.25;;;;;;;18.49;67.85;102063.63;6215153;23;20005;-88
2022/06/10 09:03:50;;;;;;;6.07;2.17;;;;;;;18.73;67.41;102062.06;6215288;23;20091;-88
2022/06/10 09:06:27;;;;;;;5.93;2.40;;;;;;;19.10;67.75;102060.06;6215855;23;20032;-87
2022/06/10 09:08:56;;;;;;;4.13;1.88;;;;;;;19.44;67.91;102058.97;6214379;23;20012;-87
2022/06/10 09:11:43;;;;;;;4.75;2.13;;;;;;;19.66;67.62;102061.72;6216458;23;20082;-88
2022/06/10 09:14:22;;;;;;;3.80;1.98;;;;;;;19.90;67.51;102062.69;6215212;23;20004;-86
2022/06/10 09:16:54;;;;;;;4.85;2.08;;;;;;;20.18;65.67;102066.13;6216085;23;20005;-87
2022/06/10 09:19:25;;;;;;;3.60;1.75;;;;;;;20.36;62.63;102069.84;6216567;23;20020;-88
2022/06/10 09:22:09;;;;;;;5.82;2.05;;;;;;;20.41;63.34;102074.94;6214603;23;20016;-86
2022/06/10 09:24:53;;;;;;;6.47;2.30;;;;;;;20.31;63.28;102069.16;6216351;23;20012;-88
2022/06/10 09:27:28;;;;;;;7.03;2.20;;;;;;;20.40;62.84;102071.44;6214879;23;20000;-87
2022/06/10 09:29:53;;;;;;;4.75;2.05;;;;;;;20.61;63.01;102068.91;6216201;23;20039;-88
2022/06/10 09:32:25;;;;;;;4.63;2.17;;;;;;;20.89;65.08;102076.63;6216017;23;20012;-87
2022/06/10 09:35:05;;;;;;;4.13;2.10;;;;;;;21.06;63.46;102075.13;6215186;23;20009;-86
2022/06/10 09:37:42;;;;;;;2.85;1.73;;;;;;;21.17;64.42;102059.72;6216465;23;20102;-87
2022/06/10 09:40:37;;;;;;;4.40;1.98;;;;;;;21.36;62.41;102066.88;6216274;23;20151;-87
2022/06/10 09:43:19;;;;;;;4.13;2.15;;;;;;;21.27;62.80;102073.41;6214712;23;20007;-88
2022/06/10 09:46:11;;;;;;;3.13;1.92;;;;;;;21.14;63.26;102071.25;6215237;23;20004;-87
2022/06/10 09:49:05;;;;;;;3.28;1.83;;;;;;;21.09;63.69;102075.84;6214500;23;20005;-86
2022/06/10 09:51:33;;;;;;;4.03;1.92;;;;;;;21.09;63.54;102075.84;6216468;23;20079;-86
2022/06/10 09:54:14;;;;;;;3.33;1.90;;;;;;;21.09;63.14;102080.28;6216032;23;20028;-87
2022/06/10 09:57:18;;;;;;;3.63;1.73;;;;;;;21.08;64.33;102079.41;6214593;23;20430;-86
2022/06/10 09:59:47;;;;;;;2.53;1.55;;;;;;;21.11;64.17;102079.31;6215736;23;20004;-87
2022/06/10 10:02:37;;;;;;;7.32;2.60;;;;;;;21.01;61.73;102077.94;6214718;23;20076;-84
2022/06/10 10:05:40;;;;;;;6.25;2.30;;;;;;;20.94;62.92;102077.34;6214036;23;20005;-85
2022/06/10 10:08:31;;;;;;;5.63;2.13;;;;;;;21.27;63.34;102078.69;6216275;23;20064;-86
2022/06/10 10:11:19;;;;;;;6.25;2.17;;;;;;;21.63;61.95;102075.44;6215073;23;20012;-80
2022/06/10 10:14:00;;;;;;;5.13;2.10;;;;;;;21.77;61.52;102066.94;6215827;23;20086;-80
2022/06/10 10:17:03;;;;;;;6.68;2.25;;;;;;;21.86;61.38;102069.19;6215592;23;20008;-90
2022/06/10 10:19:43;;;;;;;5.60;2.40;;;;;;;21.71;61.23;102083.03;6215365;23;20436;-87
2022/06/10 10:22:52;;;;;;;5.40;2.10;;;;;;;21.59;61.56;102080.00;6215981;23;20091;-86
2022/06/10 10:25:22;;;;;;;3.55;2.05;;;;;;;21.57;62.17;102067.75;6215204;23;20001;-87
2022/06/10 10:27:49;;;;;;;4.68;2.08;;;;;;;21.52;61.99;102069.72;6215632;23;20008;-86
2022/06/10 10:30:23;;;;;;;5.55;2.40;;;;;;;21.50;62.12;102067.16;6216068;23;20075;-86
2022/06/10 10:32:56;;;;;;;6.10;2.40;;;;;;;21.45;61.15;102064.72;6215290;23;20437;-86
2022/06/10 10:35:31;;;;;;;3.45;2.20;;;;;;;21.49;62.16;102064.59;6215448;23;20009;-87
2022/06/10 10:38:03;;;;;;;4.63;2.20;;;;;;;21.62;62.01;102073.72;6214673;23;20300;-87
2022/06/10 10:40:44;;;;;;;4.60;2.40;;;;;;;21.87;61.32;102070.91;6215639;23;20083;-87
2022/06/10 10:43:20;;;;;;;7.68;2.58;;;;;;;22.00;60.46;102059.78;6215404;23;20004;-87
2022/06/10 10:45:54;;;;;;;;;;;;;;;22.04;61.24;102058.72;6215108;23;20057;-86
2022/06/10 10:48:25;;;;;;;4.78;2.33;;;;;;;22.16;61.77;102054.69;6215925;23;19916;-87
2022/06/10 10:50:58;;;;;;;6.40;2.50;;;;;;;22.36;58.76;102056.38;6214616;23;20001;-86
2022/06/10 10:53:30;;;;;;;6.40;2.30;;;;;;;22.47;59.78;102055.94;6215431;23;20004;-81
2022/06/10 10:55:58;;;;;;;3.50;2.13;;;;;;;22.56;59.44;102060.78;6217355;23;20004;-80
2022/06/10 10:58:31;;;;;;;22.50;4.22;;;;;;;22.59;58.96;102057.16;6214977;23;20426;-80
2022/06/10 11:01:01;;;;;;;9.88;3.00;;;;;;;22.73;58.51;102057.34;6217001;23;20035;-80
2022/06/10 11:03:34;;;;;;;7.03;2.80;;;;;;;22.34;58.66;102055.63;6216310;23;20116;-80
2022/06/10 11:06:06;;;;;;;4.85;2.28;;;;;;;22.12;60.30;102058.38;6213930;23;20016;-80
2022/06/10 11:08:34;;;;;;;3.58;2.20;;;;;;;22.07;61.38;102063.88;6217604;23;20445;-80
2022/06/10 11:11:17;;;;;;;2.00;1.80;;;;;;;22.01;62.00;102065.00;6216818;23;20415;-82
2022/06/10 11:13:47;;;;;;;2.40;1.80;;;;;;;22.01;62.52;102061.50;6215208;23;20009;-81
2022/06/10 11:16:40;;;;;;;4.55;1.80;;;;;;;21.97;61.88;102063.41;6215551;23;20036;-83
2022/06/10 11:19:25;;;;;;;5.03;2.63;;;;;;;21.90;62.13;102059.34;6203538;23;20329;-84
2022/06/10 11:21:56;;;;;;;7.68;2.38;;;;;;;21.83;61.86;102064.03;6214655;23;20308;-83
2022/06/10 11:24:40;;;;;;;6.70;2.78;;;;;;;21.73;60.73;102054.78;6215806;23;20012;-83
2022/06/10 11:27:35;;;;;;;6.57;2.85;;;;;;;22.00;61.67;102051.88;6215354;23;20426;-79
2022/06/10 11:30:15;;;;;;;6.70;2.63;;;;;;;22.19;61.85;102051.88;6217213;23;20330;-80
2022/06/10 11:32:51;;;;;;;2.63;1.95;;;;;;;22.38;62.50;102059.81;6215496;23;20507;-79
2022/06/10 11:35:24;;;;;;;4.75;2.33;;;;;;;22.43;61.40;102052.59;6214542;23;20004;-79
2022/06/10 11:38:00;;;;;;;6.55;2.63;;;;;;;22.28;60.96;102056.78;6214735;23;20008;-80
2022/06/10 11:40:42;;;;;;;3.95;2.08;;;;;;;22.16;58.99;102052.88;6215354;23;20063;-81
2022/06/10 11:43:22;;;;;;;3.42;2.00;;;;;;;22.25;61.77;102043.69;6215124;23;20430;-82
2022/06/10 11:45:56;;;;;;;3.50;1.95;;;;;;;22.65;62.34;102047.13;6214774;23;20071;-81
2022/06/10 11:49:15;;;;;;;4.00;1.80;;;;;;;22.91;61.10;102038.91;6214366;23;19996;-79
2022/06/10 11:51:58;;;;;;;3.70;2.00;;;;;;;23.16;58.63;102049.13;6122654;23;20037;-80
2022/06/10 11:54:43;;;;;;;3.72;2.00;;;;;;;23.45;59.90;102036.22;6206229;23;20004;-80
2022/06/10 12:00:25;;;;;;;1.92;1.65;;;;;;;23.98;59.00;102028.25;6215000;23;20059;-80
2022/06/10 12:03:10;;;;;;;2.58;1.60;;;;;;;24.20;59.05;102025.28;6213833;23;20005;-79